Have a Safe July 4th! 

Flight Track Log - Related Links

Times and Time Zones

All times are in EST time to prevent confusion due to time zone crossing. See the N1926A flight status page for this flight to view local times or setup timezone preferences in your user account.

Time Position Orientation Groundspeed Altitude Reporting Facility
EST Latitude Longitude Course Direction KTS MPH feet Rate Location/Type
Wed 08:50:59 AM 42.1272 -87.8511 184° South 193 222 20,000  Level Chicago Center
Wed 08:52:00 AM 42.1681 -87.8767 335° Northwest 169 194 20,000 -6,927 Level Chicago Center
Wed 08:53:02 AM 42.2000 -87.9253 312° West 159 183 5,800 -6,774 Descending Chicago Center
Wed 08:54:04 AM 42.1756 -87.9903 243° Southwest 197 227 6,000 105 Climbing Chicago Center
Wed 08:54:56 AM 42.1000 -88.0000 185° South 248 285 6,000  Level Chicago TRACON
Wed 08:56:00 AM 41.7114 -88.0086 184° South  Level Estimated
Wed 08:56:02 AM 42.0333 -88.0000 180° South 260 299 6,000  Level Chicago TRACON
Wed 08:56:56 AM 41.9667 -87.9833 169° South 265 305 6,000  Level Chicago TRACON
Wed 08:57:56 AM 41.9000 -87.9833 180° South 262 302 6,000  Level Chicago TRACON
Wed 08:59:02 AM 41.8167 -87.9667 172° South 264 304 6,000  Level Chicago TRACON
Wed 09:00:02 AM 41.7333 -87.9667 180° South 263 303 6,000 541 Level Chicago TRACON
Wed 09:01:15 AM 41.6583 -87.9819 189° South 244 281 7,200 889 Climbing Chicago Center
Wed 09:02:17 AM 41.5967 -87.9931 188° South 242 278 8,000 726 Climbing Chicago Center
Wed 09:03:19 AM 41.5225 -88.0103 190° South 248 285 8,700 829 Climbing Chicago Center
Wed 09:04:20 AM 41.4553 -88.0203 186° South 244 281 9,700 1,122 Climbing Chicago Center
Wed 09:05:22 AM 41.3883 -88.0208 180° South 239 275 11,000 1,113 Climbing Chicago Center
Wed 09:06:24 AM 41.3172 -88.0294 185° South 255 293 12,000 1,268 Climbing Chicago Center
Wed 09:07:25 AM 41.2500 -88.0417 188° South 247 284 13,600 1,415 Climbing Chicago Center
Wed 09:08:27 AM 41.1822 -88.0586 191° South 247 284 14,900 1,366 Climbing Chicago Center
Wed 09:09:28 AM 41.0986 -88.0786 190° South 253 291 16,400 1,415 Climbing Chicago Center
Wed 09:10:30 AM 41.0261 -88.0975 191° South 259 298 17,800 1,113 Climbing Chicago Center
Wed 09:11:32 AM 40.9556 -88.1228 195° South 263 303 18,700 976 Climbing Chicago Center
Wed 09:12:33 AM 40.8778 -88.1511 195° South 281 323 19,800 634 Climbing Chicago Center
Wed 09:13:35 AM 40.7981 -88.1811 196° South 293 337 20,000 97 Climbing Chicago Center
Wed 09:14:37 AM 40.7094 -88.2083 193° South 321 369 20,000  Level Chicago Center
Wed 09:15:38 AM 40.6214 -88.2314 191° South 322 371 20,000  Level Chicago Center
Wed 09:16:40 AM 40.5342 -88.2544 191° South 320 368 20,000  Level Chicago Center
Wed 09:17:42 AM 40.4303 -88.2856 193° South 319 367 20,000  Level Chicago Center
Wed 09:18:44 AM 40.3425 -88.3078 191° South 320 368 20,000  Level Chicago Center
Wed 09:19:45 AM 40.2567 -88.3272 190° South 314 361 20,000  Level Chicago Center
Wed 09:20:47 AM 40.1711 -88.3489 191° South 311 358 20,000  Level Chicago Center
Wed 09:21:49 AM 40.0869 -88.3694 191° South 308 354 20,000  Level Chicago Center
Wed 09:22:50 AM 40.0031 -88.3917 191° South 306 352 20,000  Level Chicago Center
Wed 09:23:52 AM 39.9192 -88.4144 192° South 306 352 20,000  Level Chicago Center
Wed 09:24:54 AM 39.8378 -88.4386 193° South 301 346 20,000  Level Chicago Center
Wed 09:25:55 AM 39.7419 -88.4683 193° South 296 341 20,000  Level Chicago Center
Wed 09:26:57 AM 39.6606 -88.4919 193° South 297 342 20,000  Level Chicago Center
Wed 09:27:59 AM 39.5775 -88.5169 193° South 302 348 20,000  Level Chicago Center
Wed 09:29:00 AM 39.4956 -88.5375 191° South 301 346 20,000  Level Chicago Center
Wed 09:30:02 AM 39.4147 -88.5578 191° South 297 342 20,000  Level Chicago Center
Wed 09:31:04 AM 39.3333 -88.5789 191° South 298 343 20,000  Level Chicago Center
Wed 09:32:06 AM 39.2525 -88.6008 192° South 297 342 20,000  Level Chicago Center
Wed 09:33:07 AM 39.1731 -88.6225 192° South 294 338 20,000 -683 Level Chicago Center
Wed 09:34:09 AM 39.0742 -88.6506 192° South 300 345 18,600 -1,210 Descending Chicago Center
Wed 09:35:11 AM 38.9889 -88.6775 194° South 310 357 17,500 -1,283 Descending Chicago Center
Wed 09:36:34 AM 38.8778 -88.7119 194° South 307 353 15,500 -1,673 Descending Kansas City Center
Wed 09:37:38 AM 38.7989 -88.7350 193° South 298 343 13,400 -1,968 Descending Kansas City Center
Wed 09:38:39 AM 38.7178 -88.7592 193° South 297 342 11,400 -2,132 Descending Kansas City Center
Wed 09:39:39 AM 38.6403 -88.7767 190° South 291 335 9,100 -2,195 Descending Kansas City Center
Wed 09:40:42 AM 38.5517 -88.7839 184° South 280 322 6,900 -1,984 Descending Kansas City Center
Wed 09:41:43 AM 38.4872 -88.7847 181° South 247 284 5,000 -1,869 Descending Kansas City Center

Login

Don't have an account? Register now (free) for customized features, flight alerts, and more!